Time;durP1;ratioP1;P1;durP2;ratioP2;P2;SDS_P1;SDS_P2;PMS_P1;PMS_P2;Temp;Humidity;BMP_temperature;BMP_pressure;BME280_temperature;BME280_humidity;BME280_pressure;Samples;Min_cycle;Max_cycle;Signal;HPM_P1;HPM_P2
2023/07/30 00:02:17;;;;;;;28.90;9.85;;;15.80;99.90;;;;;;5114282;27;20389;-41
2023/07/30 00:04:43;;;;;;;33.40;10.00;;;15.80;99.90;;;;;;5114933;27;20054;-41
2023/07/30 00:07:09;;;;;;;28.02;8.82;;;15.80;99.90;;;;;;5096788;28;20084;-41
2023/07/30 00:09:34;;;;;;;30.83;8.80;;;15.80;99.90;;;;;;5095596;27;20368;-42
2023/07/30 00:12:02;;;;;;;28.23;8.73;;;15.80;99.90;;;;;;5112985;28;20047;-42
2023/07/30 00:14:27;;;;;;;29.83;10.02;;;15.70;99.90;;;;;;5112211;27;20526;-42
2023/07/30 00:16:53;;;;;;;31.05;9.65;;;15.80;99.90;;;;;;5112336;27;20043;-40
2023/07/30 00:19:19;;;;;;;29.02;9.55;;;15.80;99.90;;;;;;5103018;27;20650;-40
2023/07/30 00:21:46;;;;;;;32.50;8.93;;;15.90;99.90;;;;;;5115415;27;20051;-40
2023/07/30 00:24:13;;;;;;;25.27;8.82;;;15.90;99.90;;;;;;5115322;27;20314;-41
2023/07/30 00:26:39;;;;;;;24.30;8.80;;;16.00;99.90;;;;;;5095719;28;20392;-41
2023/07/30 00:29:04;;;;;;;26.38;8.18;;;16.00;99.90;;;;;;5097221;27;20035;-41
2023/07/30 00:31:30;;;;;;;31.45;9.52;;;15.90;99.90;;;;;;5113940;27;20043;-41
2023/07/30 00:33:56;;;;;;;27.77;9.23;;;15.90;99.90;;;;;;5115077;27;20443;-42
2023/07/30 00:36:21;;;;;;;30.35;9.75;;;15.80;99.90;;;;;;5116169;27;20039;-42
2023/07/30 00:38:47;;;;;;;34.25;10.73;;;15.80;99.90;;;;;;5097142;28;20043;-41
2023/07/30 00:41:13;;;;;;;27.60;9.43;;;15.70;99.90;;;;;;5114445;27;20039;-41
2023/07/30 00:43:39;;;;;;;29.30;10.52;;;15.70;99.90;;;;;;5079586;28;20039;-41
2023/07/30 00:46:04;;;;;;;35.28;10.95;;;15.60;99.90;;;;;;5114920;27;20041;-41
2023/07/30 00:48:30;;;;;;;28.58;10.50;;;15.50;99.90;;;;;;5115177;27;20207;-41
2023/07/30 00:50:57;;;;;;;24.15;9.77;;;15.40;99.90;;;;;;5113720;27;20045;-42
2023/07/30 00:53:25;;;;;;;23.65;10.55;;;15.30;99.90;;;;;;5117380;27;20089;-41
2023/07/30 00:55:51;;;;;;;23.75;10.95;;;15.30;99.90;;;;;;5094066;27;20154;-41
2023/07/30 00:58:18;;;;;;;27.65;11.32;;;15.30;99.90;;;;;;5138971;27;20125;-41
2023/07/30 01:00:44;;;;;;;26.27;11.02;;;15.20;99.90;;;;;;5137198;27;20497;-41
2023/07/30 01:03:10;;;;;;;20.38;10.40;;;15.20;99.90;;;;;;5137748;27;20057;-41
2023/07/30 01:05:36;;;;;;;26.85;10.77;;;15.10;99.90;;;;;;5138435;27;20051;-41
2023/07/30 01:08:02;;;;;;;22.25;10.77;;;15.10;99.90;;;;;;5131791;27;20401;-41
2023/07/30 01:10:30;;;;;;;36.17;12.13;;;15.10;99.90;;;;;;5115063;27;20528;-41
2023/07/30 01:12:56;;;;;;;26.77;10.55;;;15.10;99.90;;;;;;5117139;27;20051;-43
2023/07/30 01:15:21;;;;;;;29.38;11.60;;;15.10;99.90;;;;;;5089902;28;20429;-42
2023/07/30 01:17:47;;;;;;;26.27;11.23;;;15.10;99.90;;;;;;5131738;27;20046;-42
2023/07/30 01:20:13;;;;;;;22.95;10.10;;;15.10;99.90;;;;;;5136886;27;20039;-40
2023/07/30 01:22:38;;;;;;;27.73;10.68;;;15.00;99.90;;;;;;5138086;27;20043;-42
2023/07/30 01:25:04;;;;;;;25.40;9.63;;;15.00;99.90;;;;;;5121977;27;20107;-40
2023/07/30 01:27:35;;;;;;;28.17;11.20;;;14.90;99.90;;;;;;5138834;27;20045;-40
2023/07/30 01:30:18;;;;;;;24.15;10.75;;;14.80;99.90;;;;;;5138437;27;20054;-41
2023/07/30 01:32:48;;;;;;;25.77;10.97;;;14.90;99.90;;;;;;5138068;27;20069;-40
2023/07/30 01:35:15;;;;;;;32.15;10.20;;;14.90;99.90;;;;;;5138534;27;20043;-41
2023/07/30 01:37:43;;;;;;;28.25;9.93;;;14.80;99.90;;;;;;5119856;27;20042;-41
2023/07/30 01:40:10;;;;;;;22.98;8.93;;;14.80;99.90;;;;;;5137327;27;20117;-41
2023/07/30 01:42:36;;;;;;;31.08;10.05;;;14.80;99.90;;;;;;5138181;27;20631;-40
2023/07/30 01:45:02;;;;;;;31.33;10.00;;;14.80;99.90;;;;;;5137377;27;20429;-41
2023/07/30 01:47:27;;;;;;;32.20;10.48;;;14.70;99.90;;;;;;5138315;27;20042;-41
2023/07/30 01:49:53;;;;;;;29.80;9.68;;;14.70;99.90;;;;;;5137886;27;20488;-40
2023/07/30 01:52:19;;;;;;;26.30;9.55;;;14.70;99.90;;;;;;5118865;27;20474;-41
2023/07/30 01:54:45;;;;;;;26.75;10.20;;;14.70;99.90;;;;;;5137329;27;20038;-40
2023/07/30 01:57:12;;;;;;;34.58;11.60;;;14.70;99.90;;;;;;5124333;27;20074;-41
2023/07/30 01:59:38;;;;;;;34.92;10.32;;;14.70;99.90;;;;;;5118674;27;20499;-42
2023/07/30 02:02:04;;;;;;;28.55;10.43;;;14.70;99.90;;;;;;5109228;27;20051;-41
2023/07/30 02:04:29;;;;;;;28.65;10.23;;;14.80;99.90;;;;;;5114311;27;20066;-41
2023/07/30 02:06:55;;;;;;;25.77;9.55;;;14.80;99.90;;;;;;5096333;27;20458;-41
2023/07/30 02:09:21;;;;;;;31.67;10.10;;;14.80;99.90;;;;;;5110954;27;20047;-39
2023/07/30 02:11:47;;;;;;;32.08;10.38;;;14.90;99.90;;;;;;5114605;27;20603;-40
2023/07/30 02:14:12;;;;;;;33.08;9.15;;;15.00;99.90;;;;;;5129656;27;20129;-41
2023/07/30 02:16:38;;;;;;;32.95;12.10;;;14.90;99.90;;;;;;5083760;27;20127;-41
2023/07/30 02:19:04;;;;;;;29.73;9.20;;;15.00;99.90;;;;;;5115813;27;20043;-40
2023/07/30 02:21:32;;;;;;;28.88;9.23;;;15.00;99.90;;;;;;5114373;27;20039;-41
2023/07/30 02:23:58;;;;;;;27.15;8.85;;;15.00;99.90;;;;;;5109047;27;20453;-41
2023/07/30 02:26:24;;;;;;;34.88;8.68;;;15.00;99.90;;;;;;5137071;27;20122;-40
2023/07/30 02:28:50;;;;;;;27.15;10.35;;;15.00;99.90;;;;;;5117873;27;20050;-40
2023/07/30 02:31:15;;;;;;;29.63;10.20;;;14.90;99.90;;;;;;5136147;27;20047;-41
2023/07/30 02:33:41;;;;;;;30.40;8.38;;;15.00;99.90;;;;;;5122216;27;20394;-40
2023/07/30 02:36:07;;;;;;;36.88;9.52;;;15.00;99.90;;;;;;5116589;27;20042;-41
2023/07/30 02:38:32;;;;;;;27.80;8.70;;;14.90;99.90;;;;;;5115710;27;20050;-41
2023/07/30 02:40:58;;;;;;;29.55;9.20;;;14.90;99.90;;;;;;5114839;27;20162;-41
2023/07/30 02:43:23;;;;;;;29.58;10.63;;;14.90;99.90;;;;;;5115970;27;20088;-41
2023/07/30 02:45:49;;;;;;;23.60;8.15;;;14.90;99.90;;;;;;5115306;27;20039;-42
2023/07/30 02:48:15;;;;;;;31.83;9.32;;;14.90;99.90;;;;;;5115729;27;20488;-42
2023/07/30 02:50:40;;;;;;;29.55;9.32;;;14.90;99.90;;;;;;5115314;27;20130;-42
2023/07/30 02:53:06;;;;;;;27.40;8.55;;;14.90;99.90;;;;;;5096771;27;20154;-41
2023/07/30 02:55:32;;;;;;;26.85;8.85;;;14.90;99.90;;;;;;5114675;27;20043;-41
2023/07/30 02:57:57;;;;;;;33.08;9.52;;;14.90;99.90;;;;;;5115068;27;20043;-41
2023/07/30 03:00:23;;;;;;;30.70;9.63;;;14.90;99.90;;;;;;5113772;27;20043;-41
2023/07/30 03:02:48;;;;;;;32.40;9.23;;;14.90;99.90;;;;;;5115137;27;20377;-41
2023/07/30 03:05:14;;;;;;;26.95;9.40;;;14.90;99.90;;;;;;5115079;27;20522;-41
2023/07/30 03:07:40;;;;;;;26.65;9.43;;;14.90;99.90;;;;;;5115757;27;20042;-40
2023/07/30 03:10:06;;;;;;;29.05;9.10;;;14.90;99.90;;;;;;5109368;27;20482;-41
2023/07/30 03:12:31;;;;;;;30.17;9.40;;;14.90;99.90;;;;;;5115647;27;20569;-41
2023/07/30 03:14:57;;;;;;;24.13;8.38;;;14.90;99.90;;;;;;5109061;27;20121;-42
2023/07/30 03:17:22;;;;;;;32.42;8.93;;;15.00;99.90;;;;;;5123087;27;20046;-41
2023/07/30 03:19:48;;;;;;;27.48;8.43;;;15.10;99.90;;;;;;5117358;27;20046;-41
2023/07/30 03:22:14;;;;;;;33.70;8.90;;;15.10;99.90;;;;;;5135309;27;20042;-40
2023/07/30 03:24:39;;;;;;;27.00;7.72;;;15.20;99.90;;;;;;5112850;27;20035;-41
2023/07/30 03:27:05;;;;;;;23.23;7.60;;;15.10;99.90;;;;;;5116188;27;20046;-41
2023/07/30 03:29:31;;;;;;;30.75;9.00;;;15.10;99.90;;;;;;5115122;27;20039;-40
2023/07/30 03:31:57;;;;;;;31.48;8.27;;;15.20;99.90;;;;;;5114766;27;20035;-41
2023/07/30 03:34:22;;;;;;;26.60;7.97;;;15.20;99.90;;;;;;5115999;27;20472;-41
2023/07/30 03:36:48;;;;;;;27.40;7.80;;;15.20;99.90;;;;;;5115325;27;20047;-40
2023/07/30 03:39:13;;;;;;;27.83;7.90;;;15.20;99.90;;;;;;5115559;27;20050;-41
2023/07/30 03:41:39;;;;;;;22.92;7.30;;;15.20;99.90;;;;;;5114453;27;20095;-42
2023/07/30 03:44:05;;;;;;;21.50;6.80;;;15.20;99.90;;;;;;5114531;27;20415;-41
2023/07/30 03:46:30;;;;;;;23.35;6.97;;;15.30;99.90;;;;;;5115589;27;20485;-41
2023/07/30 03:48:56;;;;;;;23.25;6.57;;;15.30;99.90;;;;;;5115960;27;20048;-41
2023/07/30 03:51:22;;;;;;;22.33;6.75;;;15.30;99.90;;;;;;5114180;27;20423;-41
2023/07/30 03:53:47;;;;;;;15.18;5.22;;;15.30;99.90;;;;;;5115126;27;20408;-41
2023/07/30 03:56:13;;;;;;;14.95;4.55;;;15.30;99.90;;;;;;5114276;27;20095;-40
2023/07/30 03:58:39;;;;;;;16.70;4.53;;;15.30;99.90;;;;;;5114945;27;20055;-41
2023/07/30 04:01:04;;;;;;;16.90;4.50;;;15.40;99.90;;;;;;5112990;27;20481;-40
2023/07/30 04:03:30;;;;;;;18.05;4.45;;;15.40;99.90;;;;;;5098746;27;20043;-41
2023/07/30 04:05:55;;;;;;;15.07;4.60;;;15.30;99.90;;;;;;5112457;28;20039;-41
2023/07/30 04:08:21;;;;;;;15.85;4.07;;;15.30;99.90;;;;;;5108427;27;20051;-42
2023/07/30 04:10:47;;;;;;;14.63;3.60;;;15.30;99.90;;;;;;5081994;28;20429;-41
2023/07/30 04:13:13;;;;;;;15.63;3.28;;;15.40;99.90;;;;;;5133098;27;20055;-40
2023/07/30 04:15:38;;;;;;;12.27;3.55;;;15.40;99.90;;;;;;5091822;28;20084;-42
2023/07/30 04:18:04;;;;;;;16.88;3.50;;;15.50;99.90;;;;;;5133365;27;20529;-42
2023/07/30 04:20:29;;;;;;;11.95;3.70;;;15.50;99.90;;;;;;5114956;27;20844;-41
2023/07/30 04:22:55;;;;;;;11.52;3.17;;;15.60;99.90;;;;;;5135055;27;20042;-40
2023/07/30 04:25:21;;;;;;;9.98;3.03;;;15.70;99.90;;;;;;5107145;27;20091;-40
2023/07/30 04:27:46;;;;;;;12.00;3.25;;;15.80;99.90;;;;;;5116902;27;20424;-41
2023/07/30 04:30:12;;;;;;;11.77;3.40;;;15.80;99.90;;;;;;5117571;27;20209;-40
2023/07/30 04:32:37;;;;;;;12.98;3.55;;;15.90;99.90;;;;;;5118847;27;20496;-40
2023/07/30 04:35:03;;;;;;;15.52;3.35;;;15.90;99.90;;;;;;5118530;27;20039;-41
2023/07/30 04:37:29;;;;;;;9.88;2.83;;;16.00;99.90;;;;;;5123574;27;20046;-40
2023/07/30 04:39:55;;;;;;;11.18;2.65;;;16.00;99.90;;;;;;5138070;27;20049;-41
2023/07/30 04:42:20;;;;;;;13.82;3.38;;;16.00;99.90;;;;;;5119212;27;20096;-40
2023/07/30 04:44:46;;;;;;;13.75;3.17;;;16.10;99.90;;;;;;5117932;27;20170;-40
2023/07/30 04:47:12;;;;;;;11.98;2.63;;;16.10;99.90;;;;;;5117655;27;20061;-42
2023/07/30 04:49:40;;;;;;;13.90;3.78;;;16.20;99.90;;;;;;5118561;27;20122;-41
2023/07/30 04:52:07;;;;;;;14.32;3.05;;;16.30;99.90;;;;;;5117231;27;20060;-41
2023/07/30 04:54:32;;;;;;;7.30;2.53;;;16.40;99.90;;;;;;5117723;27;20062;-42
2023/07/30 04:56:58;;;;;;;11.52;3.45;;;16.40;99.90;;;;;;5101841;27;20667;-41
2023/07/30 04:59:24;;;;;;;11.55;2.95;;;16.40;99.90;;;;;;5119539;27;20831;-41
2023/07/30 05:01:49;;;;;;;12.25;4.15;;;16.40;99.90;;;;;;5105921;27;20044;-42
2023/07/30 05:04:15;;;;;;;11.15;2.55;;;16.60;99.90;;;;;;5124095;27;20096;-40
2023/07/30 05:06:40;;;;;;;7.00;2.40;;;16.60;99.90;;;;;;5139086;27;20107;-40
2023/07/30 05:09:06;;;;;;;15.68;3.35;;;16.70;99.90;;;;;;5120918;27;20589;-42
2023/07/30 05:11:32;;;;;;;13.63;3.15;;;16.90;99.90;;;;;;5117077;27;20047;-41
2023/07/30 05:13:57;;;;;;;13.45;3.08;;;16.80;99.90;;;;;;5099263;27;20577;-41
2023/07/30 05:16:23;;;;;;;10.90;3.72;;;16.90;99.90;;;;;;5122102;27;20064;-40
2023/07/30 05:18:48;;;;;;;10.05;2.90;;;16.80;99.90;;;;;;5138661;27;20051;-40
2023/07/30 05:21:14;;;;;;;16.17;3.67;;;16.80;99.90;;;;;;5136732;27;20042;-42
2023/07/30 05:23:40;;;;;;;18.60;3.65;;;16.70;99.90;;;;;;5125555;27;20565;-41
2023/07/30 05:26:05;;;;;;;16.88;2.97;;;16.80;99.90;;;;;;5134835;27;20065;-40
2023/07/30 05:28:32;;;;;;;10.48;2.95;;;16.80;99.90;;;;;;5138740;27;20046;-41
2023/07/30 05:30:58;;;;;;;11.55;3.47;;;16.80;99.90;;;;;;5137510;27;20421;-42
2023/07/30 05:33:24;;;;;;;11.10;3.80;;;16.90;99.90;;;;;;5139635;27;20049;-41
2023/07/30 05:35:50;;;;;;;8.05;3.00;;;16.90;99.90;;;;;;5114617;27;20517;-42
2023/07/30 05:38:15;;;;;;;11.30;3.20;;;16.90;99.90;;;;;;5116731;27;20047;-41
2023/07/30 05:40:42;;;;;;;13.13;3.45;;;17.00;99.90;;;;;;5116966;27;20078;-41
2023/07/30 05:43:07;;;;;;;12.07;3.10;;;17.00;99.90;;;;;;5117638;27;20231;-41
2023/07/30 05:45:34;;;;;;;12.57;3.63;;;17.00;99.90;;;;;;5117535;27;20109;-40
2023/07/30 05:47:59;;;;;;;12.55;3.20;;;17.00;99.90;;;;;;5116916;27;20035;-41
2023/07/30 05:50:25;;;;;;;13.98;3.97;;;17.10;99.90;;;;;;5098209;27;20238;-41
2023/07/30 05:52:50;;;;;;;11.20;3.50;;;17.10;99.90;;;;;;5116741;27;20556;-40
2023/07/30 05:55:16;;;;;;;13.38;2.90;;;17.10;99.90;;;;;;5115428;27;20045;-41
2023/07/30 05:57:42;;;;;;;11.15;3.05;;;17.10;99.90;;;;;;5117041;27;20043;-41
2023/07/30 06:00:08;;;;;;;12.80;3.10;;;17.10;99.90;;;;;;5116747;27;20045;-40
2023/07/30 06:02:34;;;;;;;12.20;4.00;;;17.10;99.90;;;;;;5098784;27;20134;-41
2023/07/30 06:04:59;;;;;;;11.80;3.15;;;17.10;99.90;;;;;;5116673;27;20039;-41
2023/07/30 06:07:25;;;;;;;13.57;3.00;;;17.20;99.90;;;;;;5118169;27;20061;-41
2023/07/30 06:09:50;;;;;;;13.23;3.42;;;17.30;99.90;;;;;;5101337;27;20185;-41
2023/07/30 06:12:16;;;;;;;11.48;3.42;;;17.40;99.90;;;;;;5116251;27;20046;-42
2023/07/30 06:14:42;;;;;;;11.77;3.08;;;17.50;99.90;;;;;;5117515;27;20043;-41
2023/07/30 06:17:07;;;;;;;11.05;3.35;;;17.60;99.90;;;;;;5116850;27;20119;-41
2023/07/30 06:19:34;;;;;;;12.00;3.55;;;17.70;99.90;;;;;;5098567;27;20556;-41
2023/07/30 06:22:00;;;;;;;14.25;3.08;;;17.90;99.90;;;;;;5115159;27;20415;-41
2023/07/30 06:24:25;;;;;;;13.18;3.30;;;18.10;99.90;;;;;;5116148;27;20039;-42
2023/07/30 06:26:51;;;;;;;14.75;3.80;;;18.30;99.90;;;;;;5097724;27;20043;-42
2023/07/30 06:29:17;;;;;;;11.07;2.90;;;18.90;99.90;;;;;;5116768;27;20108;-42
2023/07/30 06:31:43;;;;;;;13.40;3.42;;;19.30;99.90;;;;;;5097475;27;20082;-42
2023/07/30 06:34:08;;;;;;;15.15;3.85;;;19.80;99.90;;;;;;5061437;28;20095;-42
2023/07/30 06:36:34;;;;;;;11.82;2.90;;;20.30;99.90;;;;;;5115230;27;20047;-42
2023/07/30 06:38:59;;;;;;;12.20;3.28;;;20.90;99.90;;;;;;5115883;27;20245;-43
2023/07/30 06:41:25;;;;;;;12.85;3.47;;;21.10;99.90;;;;;;5115923;27;20039;-43
2023/07/30 06:43:51;;;;;;;11.95;3.33;;;21.40;99.90;;;;;;5115984;27;20078;-42
2023/07/30 06:46:16;;;;;;;10.80;3.60;;;21.80;99.90;;;;;;5115347;27;20968;-42
2023/07/30 06:48:42;;;;;;;13.80;3.58;;;22.40;99.90;;;;;;5115320;27;20047;-42
2023/07/30 06:51:10;;;;;;;12.88;3.20;;;22.80;99.90;;;;;;5114236;27;20035;-42
2023/07/30 06:53:35;;;;;;;11.68;3.10;;;22.60;99.90;;;;;;5096902;27;20125;-43
2023/07/30 06:56:01;;;;;;;10.93;3.67;;;22.00;99.90;;;;;;5115217;27;20047;-42
2023/07/30 06:58:26;;;;;;;13.80;3.63;;;21.60;99.90;;;;;;5115283;27;20046;-44
2023/07/30 07:00:52;;;;;;;13.13;3.28;;;21.20;99.90;;;;;;5113890;27;20049;-43
2023/07/30 07:03:18;;;;;;;10.05;3.20;;;21.00;99.90;;;;;;5096066;27;20592;-44
2023/07/30 07:05:43;;;;;;;11.32;3.03;;;22.10;99.90;;;;;;5094671;27;20166;-44
2023/07/30 07:08:09;;;;;;;9.80;3.17;;;23.40;99.90;;;;;;5096234;27;20154;-42
2023/07/30 07:10:34;;;;;;;12.02;2.53;;;24.50;99.90;;;;;;5093713;27;20551;-43
2023/07/30 07:13:00;;;;;;;10.40;3.15;;;25.70;99.70;;;;;;5100106;27;20139;-43
2023/07/30 07:15:26;;;;;;;13.82;3.33;;;25.70;98.70;;;;;;5070202;28;20047;-42
2023/07/30 07:17:51;;;;;;;9.25;3.08;;;24.80;99.00;;;;;;5101826;27;20050;-42
2023/07/30 07:20:18;;;;;;;11.50;3.60;;;23.60;99.60;;;;;;5096169;27;20027;-43
2023/07/30 07:22:43;;;;;;;10.80;3.17;;;22.30;99.90;;;;;;5095969;27;20524;-42
2023/07/30 07:25:09;;;;;;;11.35;2.60;;;21.80;99.90;;;;;;5104600;27;20031;-44
2023/07/30 07:27:35;;;;;;;11.20;3.20;;;21.20;99.90;;;;;;5094772;27;20118;-43
2023/07/30 07:30:01;;;;;;;11.32;3.38;;;20.90;99.90;;;;;;5094318;27;20036;-42
2023/07/30 07:32:27;;;;;;;12.52;2.72;;;20.30;99.90;;;;;;5130777;27;20716;-42
2023/07/30 07:34:53;;;;;;;10.25;2.95;;;19.90;99.90;;;;;;5136215;27;20050;-42
2023/07/30 07:37:18;;;;;;;12.00;3.15;;;19.60;99.90;;;;;;5134637;27;20027;-41
2023/07/30 07:39:45;;;;;;;13.90;3.45;;;19.30;99.90;;;;;;5134615;27;20054;-44
2023/07/30 07:42:11;;;;;;;15.70;3.72;;;19.00;99.90;;;;;;5136360;27;20525;-41
2023/07/30 07:44:37;;;;;;;10.40;3.03;;;18.70;99.90;;;;;;5136593;27;20053;-42
2023/07/30 07:47:03;;;;;;;12.82;3.28;;;18.50;99.90;;;;;;5099236;28;20054;-41
2023/07/30 07:49:29;;;;;;;13.95;3.63;;;18.40;99.90;;;;;;5115152;27;20434;-41
2023/07/30 07:51:55;;;;;;;10.70;2.50;;;18.40;99.90;;;;;;5086741;28;20078;-41
2023/07/30 07:54:20;;;;;;;13.15;3.05;;;18.60;99.90;;;;;;5103713;27;20034;-43
2023/07/30 07:56:46;;;;;;;11.88;3.10;;;18.80;99.90;;;;;;5103380;27;20097;-41
2023/07/30 07:59:12;;;;;;;10.68;3.00;;;18.80;99.90;;;;;;5096481;28;20124;-41
2023/07/30 08:01:37;;;;;;;10.95;3.55;;;18.60;99.90;;;;;;5103303;27;20039;-42
2023/07/30 08:04:03;;;;;;;12.45;3.10;;;18.60;99.90;;;;;;5101580;27;20031;-41
2023/07/30 08:06:31;;;;;;;13.43;3.75;;;18.50;99.90;;;;;;5100113;27;20035;-41
2023/07/30 08:08:56;;;;;;;13.50;3.40;;;18.50;99.90;;;;;;5082287;28;20047;-41
2023/07/30 08:11:22;;;;;;;10.75;3.13;;;18.50;99.90;;;;;;5065025;28;20047;-41
2023/07/30 08:13:48;;;;;;;10.38;2.72;;;18.50;99.90;;;;;;5098608;27;20431;-42
2023/07/30 08:16:13;;;;;;;10.75;3.28;;;18.50;99.90;;;;;;5101205;27;20027;-40
2023/07/30 08:18:39;;;;;;;10.70;3.58;;;18.60;99.90;;;;;;5100119;27;20095;-42
2023/07/30 08:21:05;;;;;;;10.07;3.08;;;19.00;99.90;;;;;;5080728;28;20259;-43
2023/07/30 08:23:30;;;;;;;9.25;2.42;;;19.30;99.90;;;;;;5104272;27;20073;-42
2023/07/30 08:25:56;;;;;;;8.07;2.67;;;19.60;99.90;;;;;;5104735;27;20166;-42
2023/07/30 08:28:22;;;;;;;12.43;2.78;;;19.70;99.90;;;;;;5100543;27;20260;-41
2023/07/30 08:30:48;;;;;;;8.65;3.13;;;19.90;99.90;;;;;;5083626;27;20031;-42
2023/07/30 08:33:13;;;;;;;9.05;2.33;;;20.10;99.90;;;;;;5108671;27;20051;-43
2023/07/30 08:35:39;;;;;;;8.63;2.90;;;20.20;99.90;;;;;;5119101;27;20488;-42
2023/07/30 08:38:05;;;;;;;9.40;2.88;;;20.20;99.90;;;;;;5100850;27;20437;-41
2023/07/30 08:40:31;;;;;;;9.68;2.95;;;19.90;99.90;;;;;;5098692;27;20115;-42
2023/07/30 08:42:57;;;;;;;9.35;2.53;;;19.90;99.90;;;;;;5118878;27;20038;-42
2023/07/30 08:45:23;;;;;;;12.30;3.22;;;19.60;99.90;;;;;;5118277;27;20039;-41
2023/07/30 08:47:49;;;;;;;11.38;2.75;;;19.30;99.90;;;;;;5117964;27;20531;-42
2023/07/30 08:50:15;;;;;;;8.20;2.10;;;19.00;99.90;;;;;;5115806;27;20042;-40
2023/07/30 08:52:42;;;;;;;7.45;2.28;;;18.40;99.90;;;;;;5117357;27;20043;-42
2023/07/30 08:55:10;;;;;;;7.10;2.63;;;18.20;99.90;;;;;;5117388;27;20042;-41
2023/07/30 08:57:36;;;;;;;8.90;2.72;;;18.10;99.90;;;;;;5098485;27;20047;-42
2023/07/30 09:00:05;;;;;;;6.70;1.85;;;17.80;99.90;;;;;;5116350;27;20119;-41
2023/07/30 09:02:37;;;;;;;7.50;1.90;;;17.60;99.90;;;;;;5099091;27;20417;-43
2023/07/30 09:05:04;;;;;;;7.07;2.05;;;17.50;99.90;;;;;;5110930;27;20118;-41
2023/07/30 09:07:30;;;;;;;4.82;1.98;;;17.60;99.90;;;;;;5109070;27;20042;-41
2023/07/30 09:09:56;;;;;;;4.95;1.98;;;17.60;99.90;;;;;;5110468;27;20043;-41
2023/07/30 09:12:32;;;;;;;7.63;2.45;;;17.70;99.90;;;;;;5116952;27;20470;-42
2023/07/30 09:14:58;;;;;;;7.57;2.92;;;17.90;99.90;;;;;;5122477;27;20058;-43
2023/07/30 09:17:24;;;;;;;11.60;2.55;;;17.90;99.90;;;;;;5137813;27;20129;-43
2023/07/30 09:19:51;;;;;;;4.80;2.22;;;18.10;99.90;;;;;;5125895;27;20047;-42
2023/07/30 09:22:42;;;;;;;5.70;2.25;;;18.10;99.90;;;;;;5109190;27;20047;-42
2023/07/30 09:25:08;;;;;;;7.53;2.00;;;18.20;99.90;;;;;;5105225;27;20110;-42
2023/07/30 09:27:34;;;;;;;7.10;2.00;;;18.40;99.90;;;;;;5115165;27;20040;-42
2023/07/30 09:30:02;;;;;;;7.82;2.78;;;18.80;99.90;;;;;;5107829;27;20442;-42
2023/07/30 09:32:34;;;;;;;12.50;2.88;;;19.30;99.90;;;;;;5116085;27;20047;-42
2023/07/30 09:35:10;;;;;;;8.80;2.72;;;19.90;99.90;;;;;;5114149;27;20113;-42
2023/07/30 09:37:40;;;;;;;10.48;2.72;;;20.20;99.90;;;;;;5107912;27;20046;-41
2023/07/30 09:40:08;;;;;;;8.88;2.25;;;20.30;99.90;;;;;;5098117;27;20067;-41
2023/07/30 09:42:35;;;;;;;9.65;2.63;;;20.60;99.90;;;;;;5117557;27;20047;-41
2023/07/30 09:45:01;;;;;;;8.25;2.55;;;20.70;99.90;;;;;;5117713;27;20077;-42
2023/07/30 09:47:27;;;;;;;9.25;2.63;;;20.60;99.90;;;;;;5117293;27;20459;-42
2023/07/30 09:49:54;;;;;;;11.63;3.58;;;20.80;99.90;;;;;;5116841;27;20058;-41
2023/07/30 09:52:21;;;;;;;9.55;3.00;;;21.10;99.90;;;;;;5116498;27;20042;-42
2023/07/30 09:54:49;;;;;;;9.10;2.97;;;21.10;99.90;;;;;;5116503;27;20130;-41
2023/07/30 09:57:15;;;;;;;12.95;2.95;;;21.30;99.90;;;;;;5116006;27;20594;-41
2023/07/30 09:59:41;;;;;;;10.73;3.47;;;21.50;99.90;;;;;;5115009;27;20130;-41
2023/07/30 10:02:10;;;;;;;7.03;2.55;;;21.80;99.90;;;;;;5115927;27;20449;-42
2023/07/30 10:04:39;;;;;;;8.35;2.60;;;21.80;99.90;;;;;;5116471;27;20049;-42
2023/07/30 10:07:10;;;;;;;7.05;2.47;;;22.00;99.90;;;;;;5096836;27;20091;-43
2023/07/30 10:09:43;;;;;;;14.05;3.22;;;21.80;99.90;;;;;;5110430;27;20046;-42
2023/07/30 10:12:20;;;;;;;;;;;21.40;99.90;;;;;;5117482;27;20042;-41
2023/07/30 10:14:46;;;;;;;11.77;3.22;;;21.10;99.90;;;;;;5097197;27;20041;-42
2023/07/30 10:17:12;;;;;;;8.57;2.45;;;21.10;99.90;;;;;;5116287;27;20122;-43
2023/07/30 10:19:38;;;;;;;11.32;2.55;;;21.30;99.90;;;;;;5114194;27;20067;-42
2023/07/30 10:22:13;;;;;;;9.50;2.78;;;21.50;99.90;;;;;;5116397;27;20575;-42
2023/07/30 10:24:55;;;;;;;11.32;3.15;;;21.70;99.90;;;;;;5106338;27;20119;-42
2023/07/30 10:27:24;;;;;;;7.05;2.35;;;22.10;99.90;;;;;;5116121;27;20126;-42
2023/07/30 10:30:15;;;;;;;11.05;3.05;;;22.40;99.90;;;;;;5115538;27;20149;-42
2023/07/30 10:32:55;;;;;;;8.18;1.92;;;22.50;99.90;;;;;;5122323;27;20042;-42
2023/07/30 10:35:43;;;;;;;11.82;3.50;;;22.40;99.90;;;;;;5137437;27;20465;-42
2023/07/30 10:38:28;;;;;;;7.85;2.30;;;22.60;99.90;;;;;;5118089;27;20038;-43
2023/07/30 10:41:01;;;;;;;10.05;3.13;;;22.80;99.90;;;;;;5101712;27;20126;-41
2023/07/30 10:43:48;;;;;;;9.52;2.45;;;22.70;99.90;;;;;;5119005;27;20092;-43
2023/07/30 10:46:15;;;;;;;10.02;3.08;;;22.50;99.90;;;;;;5136889;27;20042;-42
2023/07/30 10:48:43;;;;;;;9.07;2.45;;;22.30;99.90;;;;;;5137128;27;20047;-42
2023/07/30 10:51:11;;;;;;;10.77;2.63;;;22.10;99.90;;;;;;5135430;27;20385;-42
2023/07/30 10:53:37;;;;;;;10.25;2.55;;;22.10;99.90;;;;;;5135805;27;20172;-42
2023/07/30 10:56:04;;;;;;;10.40;3.00;;;21.90;99.90;;;;;;5118090;27;20085;-41
2023/07/30 10:58:31;;;;;;;9.95;2.38;;;22.00;99.90;;;;;;5135631;27;20536;-41
2023/07/30 11:00:57;;;;;;;9.70;2.88;;;22.30;99.90;;;;;;5116697;27;20051;-43
2023/07/30 11:03:26;;;;;;;9.30;2.53;;;22.40;99.90;;;;;;5117890;27;20047;-41
2023/07/30 11:05:53;;;;;;;8.27;2.50;;;22.80;99.90;;;;;;5117977;27;20046;-44
2023/07/30 11:08:18;;;;;;;7.35;2.53;;;22.60;99.90;;;;;;5114471;27;20050;-42
2023/07/30 11:10:46;;;;;;;11.00;2.70;;;22.30;99.90;;;;;;5114155;27;20035;-41
2023/07/30 11:13:13;;;;;;;9.70;3.00;;;22.30;99.90;;;;;;5115377;27;20507;-42
2023/07/30 11:15:46;;;;;;;9.20;2.88;;;22.30;99.90;;;;;;5104751;27;20500;-41
2023/07/30 11:18:13;;;;;;;12.68;3.22;;;22.20;99.90;;;;;;5096425;27;20052;-43
2023/07/30 11:20:38;;;;;;;10.52;2.80;;;22.00;99.90;;;;;;5092307;27;20043;-43
2023/07/30 11:23:21;;;;;;;13.35;3.20;;;21.80;99.90;;;;;;5106792;27;20144;-43
2023/07/30 11:25:50;;;;;;;12.43;2.83;;;21.60;99.90;;;;;;5104554;27;20082;-42
2023/07/30 11:28:33;;;;;;;8.23;2.58;;;21.50;99.90;;;;;;5088900;27;20050;-42
2023/07/30 11:31:04;;;;;;;;;;;21.40;99.90;;;;;;5101263;27;20047;-42
2023/07/30 11:33:30;;;;;;;12.50;3.08;;;21.40;99.90;;;;;;5098163;27;20043;-42
2023/07/30 11:35:56;;;;;;;11.55;3.10;;;21.40;99.90;;;;;;5115447;27;20498;-42
2023/07/30 11:38:26;;;;;;;8.02;2.72;;;21.60;99.90;;;;;;5115897;27;20047;-42
2023/07/30 11:40:53;;;;;;;9.30;2.53;;;22.10;99.90;;;;;;5082474;28;20058;-42
2023/07/30 11:43:20;;;;;;;9.82;2.75;;;22.50;99.90;;;;;;5115683;27;20043;-42
2023/07/30 11:45:46;;;;;;;10.30;3.22;;;22.30;99.90;;;;;;5115873;27;20130;-43
2023/07/30 11:48:12;;;;;;;11.23;3.13;;;21.90;99.90;;;;;;5110709;27;20046;-43
2023/07/30 11:50:47;;;;;;;7.25;2.28;;;21.20;99.90;;;;;;5101816;27;20047;-41
2023/07/30 11:53:13;;;;;;;8.52;2.58;;;20.90;99.90;;;;;;5089317;27;20051;-45
2023/07/30 11:55:40;;;;;;;13.25;3.70;;;20.30;99.90;;;;;;5134165;27;20587;-43
2023/07/30 11:58:06;;;;;;;9.20;2.75;;;20.20;99.90;;;;;;5111509;27;20054;-41
2023/07/30 12:00:33;;;;;;;15.98;3.67;;;19.90;99.90;;;;;;5132281;27;20058;-42
2023/07/30 12:03:07;;;;;;;17.58;4.38;;;19.60;99.90;;;;;;5132195;27;20625;-43
2023/07/30 12:05:38;;;;;;;9.93;3.15;;;19.30;99.90;;;;;;5124362;27;20439;-42
2023/07/30 12:08:06;;;;;;;16.48;3.42;;;19.20;99.90;;;;;;5109209;27;20031;-42
2023/07/30 12:10:51;;;;;;;11.77;3.10;;;18.90;99.90;;;;;;5092968;28;20084;-41
2023/07/30 12:13:20;;;;;;;11.77;3.10;;;18.90;99.90;;;;;;5114656;27;20401;-42
2023/07/30 12:15:53;;;;;;;12.32;2.80;;;19.10;99.90;;;;;;5114332;27;20540;-43
2023/07/30 12:18:20;;;;;;;8.85;2.92;;;19.30;99.90;;;;;;5114375;27;20075;-42
2023/07/30 12:20:47;;;;;;;7.93;2.55;;;19.40;99.90;;;;;;5114455;27;20051;-41
2023/07/30 12:23:13;;;;;;;8.48;2.50;;;19.50;99.90;;;;;;5094744;28;20076;-42
2023/07/30 12:25:38;;;;;;;10.32;3.30;;;19.50;99.90;;;;;;5109184;27;20463;-43
2023/07/30 12:28:04;;;;;;;6.72;2.75;;;19.70;99.90;;;;;;5114762;28;20043;-43
2023/07/30 12:30:30;;;;;;;8.02;2.42;;;19.70;99.90;;;;;;5113353;27;20058;-42
2023/07/30 12:32:56;;;;;;;9.32;2.15;;;19.80;99.90;;;;;;5115288;27;20065;-42
2023/07/30 12:35:24;;;;;;;7.53;2.17;;;19.80;99.90;;;;;;5096306;28;20127;-44
2023/07/30 12:37:50;;;;;;;10.63;2.42;;;20.00;99.90;;;;;;5114723;27;20628;-43